sensor_id;sensor_type;location;lat;lon;timestamp;P1;durP1;ratioP1;P2;durP2;ratioP2
53263;SDS011;39153;52.680;6.172;2023-12-29T00:00:35;17.45;;;2.92;;
53263;SDS011;39153;52.680;6.172;2023-12-29T00:03:01;11.48;;;2.63;;
53263;SDS011;39153;52.680;6.172;2023-12-29T00:05:27;19.40;;;4.40;;
53263;SDS011;39153;52.680;6.172;2023-12-29T00:07:53;21.05;;;2.90;;
53263;SDS011;39153;52.680;6.172;2023-12-29T00:10:19;15.57;;;2.83;;
53263;SDS011;39153;52.680;6.172;2023-12-29T00:12:44;11.82;;;2.50;;
53263;SDS011;39153;52.680;6.172;2023-12-29T00:15:10;15.40;;;2.55;;
53263;SDS011;39153;52.680;6.172;2023-12-29T00:17:36;17.83;;;2.88;;
53263;SDS011;39153;52.680;6.172;2023-12-29T00:20:06;16.58;;;2.85;;
53263;SDS011;39153;52.680;6.172;2023-12-29T00:22:35;15.52;;;2.90;;
53263;SDS011;39153;52.680;6.172;2023-12-29T00:25:00;13.30;;;2.70;;
53263;SDS011;39153;52.680;6.172;2023-12-29T00:27:26;16.90;;;3.72;;
53263;SDS011;39153;52.680;6.172;2023-12-29T00:29:51;16.45;;;2.78;;
53263;SDS011;39153;52.680;6.172;2023-12-29T00:32:17;15.85;;;3.30;;
53263;SDS011;39153;52.680;6.172;2023-12-29T00:34:43;14.50;;;3.30;;
53263;SDS011;39153;52.680;6.172;2023-12-29T00:37:08;17.92;;;3.63;;
53263;SDS011;39153;52.680;6.172;2023-12-29T00:39:34;18.17;;;2.92;;
53263;SDS011;39153;52.680;6.172;2023-12-29T00:42:04;15.48;;;4.10;;
53263;SDS011;39153;52.680;6.172;2023-12-29T00:44:32;22.80;;;4.13;;
53263;SDS011;39153;52.680;6.172;2023-12-29T00:46:58;17.05;;;3.60;;
53263;SDS011;39153;52.680;6.172;2023-12-29T00:49:25;16.02;;;3.30;;
53263;SDS011;39153;52.680;6.172;2023-12-29T00:51:50;18.35;;;3.67;;
53263;SDS011;39153;52.680;6.172;2023-12-29T00:54:16;18.40;;;3.50;;
53263;SDS011;39153;52.680;6.172;2023-12-29T00:56:47;20.00;;;3.42;;
53263;SDS011;39153;52.680;6.172;2023-12-29T01:01:43;14.23;;;2.88;;
53263;SDS011;39153;52.680;6.172;2023-12-29T01:04:09;18.52;;;4.10;;
53263;SDS011;39153;52.680;6.172;2023-12-29T01:06:35;22.25;;;3.33;;
53263;SDS011;39153;52.680;6.172;2023-12-29T01:09:01;17.27;;;3.83;;
53263;SDS011;39153;52.680;6.172;2023-12-29T01:11:26;15.43;;;2.78;;
53263;SDS011;39153;52.680;6.172;2023-12-29T01:13:52;15.55;;;3.65;;
53263;SDS011;39153;52.680;6.172;2023-12-29T01:16:17;13.70;;;3.35;;
53263;SDS011;39153;52.680;6.172;2023-12-29T01:18:43;17.05;;;3.13;;
53263;SDS011;39153;52.680;6.172;2023-12-29T01:21:09;15.05;;;3.50;;
53263;SDS011;39153;52.680;6.172;2023-12-29T01:23:34;13.52;;;2.80;;
53263;SDS011;39153;52.680;6.172;2023-12-29T01:26:00;13.85;;;2.88;;
53263;SDS011;39153;52.680;6.172;2023-12-29T01:28:26;17.85;;;2.90;;
53263;SDS011;39153;52.680;6.172;2023-12-29T01:30:51;14.55;;;2.75;;
53263;SDS011;39153;52.680;6.172;2023-12-29T01:33:17;11.57;;;2.45;;
53263;SDS011;39153;52.680;6.172;2023-12-29T01:35:44;9.35;;;2.40;;
53263;SDS011;39153;52.680;6.172;2023-12-29T01:38:10;14.73;;;3.30;;
53263;SDS011;39153;52.680;6.172;2023-12-29T01:40:42;16.02;;;2.88;;
53263;SDS011;39153;52.680;6.172;2023-12-29T01:43:11;13.75;;;2.67;;
53263;SDS011;39153;52.680;6.172;2023-12-29T01:45:37;14.52;;;3.42;;
53263;SDS011;39153;52.680;6.172;2023-12-29T01:48:03;16.73;;;3.42;;
53263;SDS011;39153;52.680;6.172;2023-12-29T01:50:29;16.75;;;3.17;;
53263;SDS011;39153;52.680;6.172;2023-12-29T01:52:55;13.80;;;3.25;;
53263;SDS011;39153;52.680;6.172;2023-12-29T01:55:22;20.17;;;3.38;;
53263;SDS011;39153;52.680;6.172;2023-12-29T01:57:50;14.50;;;3.47;;
53263;SDS011;39153;52.680;6.172;2023-12-29T02:00:16;17.20;;;2.95;;
53263;SDS011;39153;52.680;6.172;2023-12-29T02:02:43;13.30;;;3.22;;
53263;SDS011;39153;52.680;6.172;2023-12-29T02:05:12;13.32;;;2.72;;
53263;SDS011;39153;52.680;6.172;2023-12-29T02:07:41;15.30;;;3.22;;
53263;SDS011;39153;52.680;6.172;2023-12-29T02:10:07;15.57;;;3.15;;
53263;SDS011;39153;52.680;6.172;2023-12-29T02:12:36;13.07;;;2.95;;
53263;SDS011;39153;52.680;6.172;2023-12-29T02:15:03;13.50;;;2.85;;
53263;SDS011;39153;52.680;6.172;2023-12-29T02:17:47;17.98;;;3.53;;
53263;SDS011;39153;52.680;6.172;2023-12-29T02:20:21;14.82;;;2.88;;
53263;SDS011;39153;52.680;6.172;2023-12-29T02:22:48;14.57;;;2.47;;
53263;SDS011;39153;52.680;6.172;2023-12-29T02:25:13;12.95;;;3.05;;
53263;SDS011;39153;52.680;6.172;2023-12-29T02:27:46;17.42;;;2.92;;
53263;SDS011;39153;52.680;6.172;2023-12-29T02:30:29;14.10;;;2.55;;
53263;SDS011;39153;52.680;6.172;2023-12-29T02:33:05;13.02;;;2.67;;
53263;SDS011;39153;52.680;6.172;2023-12-29T02:35:35;14.07;;;2.58;;
53263;SDS011;39153;52.680;6.172;2023-12-29T02:38:06;18.55;;;3.33;;
53263;SDS011;39153;52.680;6.172;2023-12-29T02:40:32;14.10;;;3.08;;
53263;SDS011;39153;52.680;6.172;2023-12-29T02:42:57;11.70;;;2.80;;
53263;SDS011;39153;52.680;6.172;2023-12-29T02:45:23;12.20;;;3.33;;
53263;SDS011;39153;52.680;6.172;2023-12-29T02:47:49;17.50;;;3.92;;
53263;SDS011;39153;52.680;6.172;2023-12-29T02:50:15;14.23;;;3.17;;
53263;SDS011;39153;52.680;6.172;2023-12-29T02:52:41;14.02;;;2.80;;
53263;SDS011;39153;52.680;6.172;2023-12-29T02:55:07;12.23;;;2.95;;
53263;SDS011;39153;52.680;6.172;2023-12-29T02:57:32;15.82;;;3.63;;
53263;SDS011;39153;52.680;6.172;2023-12-29T02:59:58;15.90;;;3.25;;
53263;SDS011;39153;52.680;6.172;2023-12-29T03:02:24;15.05;;;3.00;;
53263;SDS011;39153;52.680;6.172;2023-12-29T03:04:49;13.93;;;2.72;;
53263;SDS011;39153;52.680;6.172;2023-12-29T03:07:15;13.35;;;2.95;;
53263;SDS011;39153;52.680;6.172;2023-12-29T03:09:41;15.40;;;3.50;;
53263;SDS011;39153;52.680;6.172;2023-12-29T03:12:07;16.38;;;3.33;;
53263;SDS011;39153;52.680;6.172;2023-12-29T03:14:32;12.77;;;3.50;;
53263;SDS011;39153;52.680;6.172;2023-12-29T03:16:58;14.55;;;3.42;;
53263;SDS011;39153;52.680;6.172;2023-12-29T03:19:24;16.60;;;2.85;;
53263;SDS011;39153;52.680;6.172;2023-12-29T03:21:50;15.75;;;2.83;;
53263;SDS011;39153;52.680;6.172;2023-12-29T03:24:16;11.90;;;2.28;;
53263;SDS011;39153;52.680;6.172;2023-12-29T03:26:41;9.68;;;2.28;;
53263;SDS011;39153;52.680;6.172;2023-12-29T03:29:07;12.18;;;2.60;;
53263;SDS011;39153;52.680;6.172;2023-12-29T03:31:33;11.88;;;2.70;;
53263;SDS011;39153;52.680;6.172;2023-12-29T03:33:59;12.90;;;3.20;;
53263;SDS011;39153;52.680;6.172;2023-12-29T03:36:24;23.50;;;3.97;;
53263;SDS011;39153;52.680;6.172;2023-12-29T03:38:50;15.75;;;4.45;;
53263;SDS011;39153;52.680;6.172;2023-12-29T03:41:16;19.50;;;3.80;;
53263;SDS011;39153;52.680;6.172;2023-12-29T03:43:41;14.88;;;2.95;;
53263;SDS011;39153;52.680;6.172;2023-12-29T03:46:14;15.77;;;3.78;;
53263;SDS011;39153;52.680;6.172;2023-12-29T03:48:46;16.92;;;3.28;;
53263;SDS011;39153;52.680;6.172;2023-12-29T03:51:13;18.50;;;3.00;;
53263;SDS011;39153;52.680;6.172;2023-12-29T03:53:39;22.20;;;4.63;;
53263;SDS011;39153;52.680;6.172;2023-12-29T03:56:08;20.60;;;4.00;;
53263;SDS011;39153;52.680;6.172;2023-12-29T03:58:34;27.40;;;4.18;;
53263;SDS011;39153;52.680;6.172;2023-12-29T04:01:01;22.63;;;4.07;;
53263;SDS011;39153;52.680;6.172;2023-12-29T04:03:27;17.27;;;3.70;;
53263;SDS011;39153;52.680;6.172;2023-12-29T04:05:53;23.25;;;3.35;;
53263;SDS011;39153;52.680;6.172;2023-12-29T04:08:18;21.73;;;4.00;;
53263;SDS011;39153;52.680;6.172;2023-12-29T04:10:44;18.85;;;3.38;;
53263;SDS011;39153;52.680;6.172;2023-12-29T04:13:10;17.10;;;3.60;;
53263;SDS011;39153;52.680;6.172;2023-12-29T04:15:35;18.83;;;3.78;;
53263;SDS011;39153;52.680;6.172;2023-12-29T04:18:01;20.67;;;3.75;;
53263;SDS011;39153;52.680;6.172;2023-12-29T04:20:27;28.30;;;3.70;;
53263;SDS011;39153;52.680;6.172;2023-12-29T04:22:52;24.35;;;3.58;;
53263;SDS011;39153;52.680;6.172;2023-12-29T04:25:18;18.17;;;3.08;;
53263;SDS011;39153;52.680;6.172;2023-12-29T04:27:44;24.20;;;3.88;;
53263;SDS011;39153;52.680;6.172;2023-12-29T04:30:10;18.92;;;2.80;;
53263;SDS011;39153;52.680;6.172;2023-12-29T04:32:35;20.40;;;3.30;;
53263;SDS011;39153;52.680;6.172;2023-12-29T04:35:01;20.90;;;3.38;;
53263;SDS011;39153;52.680;6.172;2023-12-29T04:37:27;21.88;;;3.65;;
53263;SDS011;39153;52.680;6.172;2023-12-29T04:39:52;16.55;;;3.03;;
53263;SDS011;39153;52.680;6.172;2023-12-29T04:42:18;23.45;;;3.35;;
53263;SDS011;39153;52.680;6.172;2023-12-29T04:44:44;17.52;;;3.28;;
53263;SDS011;39153;52.680;6.172;2023-12-29T04:47:09;26.67;;;3.55;;
53263;SDS011;39153;52.680;6.172;2023-12-29T04:49:35;21.27;;;3.60;;
53263;SDS011;39153;52.680;6.172;2023-12-29T04:52:01;21.33;;;3.88;;
53263;SDS011;39153;52.680;6.172;2023-12-29T04:54:27;18.55;;;3.33;;
53263;SDS011;39153;52.680;6.172;2023-12-29T04:56:53;22.20;;;3.80;;
53263;SDS011;39153;52.680;6.172;2023-12-29T04:59:18;22.23;;;3.45;;
53263;SDS011;39153;52.680;6.172;2023-12-29T05:01:44;24.10;;;3.67;;
53263;SDS011;39153;52.680;6.172;2023-12-29T05:04:10;20.85;;;3.75;;
53263;SDS011;39153;52.680;6.172;2023-12-29T05:06:36;27.48;;;3.78;;
53263;SDS011;39153;52.680;6.172;2023-12-29T05:09:01;21.70;;;3.05;;
53263;SDS011;39153;52.680;6.172;2023-12-29T05:11:27;19.98;;;3.58;;
53263;SDS011;39153;52.680;6.172;2023-12-29T05:13:53;26.50;;;4.07;;
53263;SDS011;39153;52.680;6.172;2023-12-29T05:16:19;24.35;;;4.00;;
53263;SDS011;39153;52.680;6.172;2023-12-29T05:18:45;22.75;;;3.63;;
53263;SDS011;39153;52.680;6.172;2023-12-29T05:21:14;28.13;;;3.95;;
53263;SDS011;39153;52.680;6.172;2023-12-29T05:23:41;29.17;;;4.18;;
53263;SDS011;39153;52.680;6.172;2023-12-29T05:26:07;22.83;;;3.35;;
53263;SDS011;39153;52.680;6.172;2023-12-29T05:28:32;27.08;;;4.70;;
53263;SDS011;39153;52.680;6.172;2023-12-29T05:30:58;21.67;;;3.97;;
53263;SDS011;39153;52.680;6.172;2023-12-29T05:33:28;22.80;;;3.45;;
53263;SDS011;39153;52.680;6.172;2023-12-29T05:35:54;25.90;;;4.15;;
53263;SDS011;39153;52.680;6.172;2023-12-29T05:38:20;24.08;;;3.92;;
53263;SDS011;39153;52.680;6.172;2023-12-29T05:40:45;24.42;;;4.15;;
53263;SDS011;39153;52.680;6.172;2023-12-29T05:43:11;23.88;;;3.83;;
53263;SDS011;39153;52.680;6.172;2023-12-29T05:45:37;24.83;;;4.82;;
53263;SDS011;39153;52.680;6.172;2023-12-29T05:48:02;30.48;;;5.45;;
53263;SDS011;39153;52.680;6.172;2023-12-29T05:50:28;26.23;;;4.78;;
53263;SDS011;39153;52.680;6.172;2023-12-29T05:52:54;29.20;;;4.28;;
53263;SDS011;39153;52.680;6.172;2023-12-29T05:55:20;29.05;;;5.28;;
53263;SDS011;39153;52.680;6.172;2023-12-29T05:57:45;29.83;;;5.22;;
53263;SDS011;39153;52.680;6.172;2023-12-29T06:00:11;29.33;;;4.43;;
53263;SDS011;39153;52.680;6.172;2023-12-29T06:02:42;30.67;;;4.70;;
53263;SDS011;39153;52.680;6.172;2023-12-29T06:05:11;38.05;;;4.80;;
53263;SDS011;39153;52.680;6.172;2023-12-29T06:07:37;27.55;;;4.47;;
53263;SDS011;39153;52.680;6.172;2023-12-29T06:10:04;27.20;;;4.85;;
53263;SDS011;39153;52.680;6.172;2023-12-29T06:12:30;30.95;;;4.95;;
53263;SDS011;39153;52.680;6.172;2023-12-29T06:14:55;27.05;;;4.40;;
53263;SDS011;39153;52.680;6.172;2023-12-29T06:17:21;31.85;;;4.75;;
53263;SDS011;39153;52.680;6.172;2023-12-29T06:19:47;31.45;;;4.90;;
53263;SDS011;39153;52.680;6.172;2023-12-29T06:22:12;27.45;;;4.55;;
53263;SDS011;39153;52.680;6.172;2023-12-29T06:24:39;35.95;;;5.55;;
53263;SDS011;39153;52.680;6.172;2023-12-29T06:27:08;34.63;;;4.95;;
53263;SDS011;39153;52.680;6.172;2023-12-29T06:29:34;34.05;;;5.25;;
53263;SDS011;39153;52.680;6.172;2023-12-29T06:32:00;34.78;;;4.88;;
53263;SDS011;39153;52.680;6.172;2023-12-29T06:34:26;37.60;;;5.70;;
53263;SDS011;39153;52.680;6.172;2023-12-29T06:36:52;27.75;;;4.40;;
53263;SDS011;39153;52.680;6.172;2023-12-29T06:39:18;31.60;;;5.75;;
53263;SDS011;39153;52.680;6.172;2023-12-29T06:41:43;37.33;;;5.05;;
53263;SDS011;39153;52.680;6.172;2023-12-29T06:44:09;34.53;;;4.93;;
53263;SDS011;39153;52.680;6.172;2023-12-29T06:46:38;35.63;;;5.32;;
53263;SDS011;39153;52.680;6.172;2023-12-29T06:49:06;33.90;;;5.28;;
53263;SDS011;39153;52.680;6.172;2023-12-29T06:51:33;40.60;;;5.43;;
53263;SDS011;39153;52.680;6.172;2023-12-29T06:53:59;37.38;;;5.57;;
53263;SDS011;39153;52.680;6.172;2023-12-29T06:56:25;38.13;;;5.40;;
53263;SDS011;39153;52.680;6.172;2023-12-29T06:58:51;40.03;;;5.63;;
53263;SDS011;39153;52.680;6.172;2023-12-29T07:01:17;43.20;;;4.82;;
53263;SDS011;39153;52.680;6.172;2023-12-29T07:03:43;42.22;;;4.95;;
53263;SDS011;39153;52.680;6.172;2023-12-29T07:06:09;35.92;;;5.60;;
53263;SDS011;39153;52.680;6.172;2023-12-29T07:08:35;34.70;;;5.30;;
53263;SDS011;39153;52.680;6.172;2023-12-29T07:11:01;36.33;;;4.40;;
53263;SDS011;39153;52.680;6.172;2023-12-29T07:13:27;37.00;;;4.68;;
53263;SDS011;39153;52.680;6.172;2023-12-29T07:15:53;35.50;;;4.78;;
53263;SDS011;39153;52.680;6.172;2023-12-29T07:18:19;33.60;;;5.13;;
53263;SDS011;39153;52.680;6.172;2023-12-29T07:20:45;30.70;;;4.18;;
53263;SDS011;39153;52.680;6.172;2023-12-29T07:23:10;34.53;;;5.32;;
53263;SDS011;39153;52.680;6.172;2023-12-29T07:25:36;24.60;;;4.13;;
53263;SDS011;39153;52.680;6.172;2023-12-29T07:28:02;32.15;;;5.00;;
53263;SDS011;39153;52.680;6.172;2023-12-29T07:30:27;25.52;;;4.25;;
53263;SDS011;39153;52.680;6.172;2023-12-29T07:32:53;29.95;;;4.70;;
53263;SDS011;39153;52.680;6.172;2023-12-29T07:35:19;21.80;;;3.88;;
53263;SDS011;39153;52.680;6.172;2023-12-29T07:37:45;25.23;;;3.88;;
53263;SDS011;39153;52.680;6.172;2023-12-29T07:40:11;26.23;;;4.05;;
53263;SDS011;39153;52.680;6.172;2023-12-29T07:42:40;25.10;;;4.35;;
53263;SDS011;39153;52.680;6.172;2023-12-29T07:45:08;19.02;;;3.47;;
53263;SDS011;39153;52.680;6.172;2023-12-29T07:47:34;20.42;;;3.78;;
53263;SDS011;39153;52.680;6.172;2023-12-29T07:50:00;30.48;;;4.55;;
53263;SDS011;39153;52.680;6.172;2023-12-29T07:52:26;24.33;;;3.92;;
53263;SDS011;39153;52.680;6.172;2023-12-29T07:54:52;21.80;;;3.88;;
53263;SDS011;39153;52.680;6.172;2023-12-29T07:57:17;25.00;;;4.45;;
53263;SDS011;39153;52.680;6.172;2023-12-29T07:59:43;22.52;;;4.45;;
53263;SDS011;39153;52.680;6.172;2023-12-29T08:02:09;24.95;;;3.78;;
53263;SDS011;39153;52.680;6.172;2023-12-29T08:04:35;27.98;;;4.40;;
53263;SDS011;39153;52.680;6.172;2023-12-29T08:07:00;23.70;;;4.97;;
53263;SDS011;39153;52.680;6.172;2023-12-29T08:09:26;23.33;;;3.65;;
53263;SDS011;39153;52.680;6.172;2023-12-29T08:11:52;22.83;;;4.72;;
53263;SDS011;39153;52.680;6.172;2023-12-29T08:14:18;27.58;;;4.32;;
53263;SDS011;39153;52.680;6.172;2023-12-29T08:16:44;20.17;;;4.07;;
53263;SDS011;39153;52.680;6.172;2023-12-29T08:19:09;22.67;;;3.80;;
53263;SDS011;39153;52.680;6.172;2023-12-29T08:21:36;18.85;;;3.88;;
53263;SDS011;39153;52.680;6.172;2023-12-29T08:24:02;29.25;;;5.07;;
53263;SDS011;39153;52.680;6.172;2023-12-29T08:26:28;24.38;;;4.15;;
53263;SDS011;39153;52.680;6.172;2023-12-29T08:28:54;29.65;;;4.47;;
53263;SDS011;39153;52.680;6.172;2023-12-29T08:31:20;22.25;;;3.65;;
53263;SDS011;39153;52.680;6.172;2023-12-29T08:33:48;18.90;;;3.85;;
53263;SDS011;39153;52.680;6.172;2023-12-29T08:36:13;19.77;;;3.20;;
53263;SDS011;39153;52.680;6.172;2023-12-29T08:38:42;19.55;;;3.13;;
53263;SDS011;39153;52.680;6.172;2023-12-29T08:41:08;19.23;;;3.83;;
53263;SDS011;39153;52.680;6.172;2023-12-29T08:43:34;20.48;;;3.53;;
53263;SDS011;39153;52.680;6.172;2023-12-29T08:46:01;16.58;;;3.17;;
53263;SDS011;39153;52.680;6.172;2023-12-29T08:48:27;14.98;;;3.08;;
53263;SDS011;39153;52.680;6.172;2023-12-29T08:50:52;17.40;;;3.75;;
53263;SDS011;39153;52.680;6.172;2023-12-29T08:53:18;17.38;;;3.60;;
53263;SDS011;39153;52.680;6.172;2023-12-29T08:55:44;20.08;;;3.55;;
53263;SDS011;39153;52.680;6.172;2023-12-29T08:58:10;13.55;;;3.42;;
53263;SDS011;39153;52.680;6.172;2023-12-29T09:00:36;13.68;;;3.45;;
53263;SDS011;39153;52.680;6.172;2023-12-29T09:03:02;15.43;;;4.43;;
53263;SDS011;39153;52.680;6.172;2023-12-29T09:05:28;18.70;;;3.10;;
53263;SDS011;39153;52.680;6.172;2023-12-29T09:07:53;13.88;;;4.20;;
53263;SDS011;39153;52.680;6.172;2023-12-29T09:10:19;15.25;;;3.42;;
53263;SDS011;39153;52.680;6.172;2023-12-29T09:12:46;17.40;;;3.75;;
53263;SDS011;39153;52.680;6.172;2023-12-29T09:15:12;16.58;;;3.67;;
53263;SDS011;39153;52.680;6.172;2023-12-29T09:17:37;18.02;;;3.90;;
53263;SDS011;39153;52.680;6.172;2023-12-29T09:20:03;13.73;;;3.10;;
53263;SDS011;39153;52.680;6.172;2023-12-29T09:22:29;17.55;;;3.95;;
53263;SDS011;39153;52.680;6.172;2023-12-29T09:24:55;15.90;;;3.47;;
53263;SDS011;39153;52.680;6.172;2023-12-29T09:27:21;13.95;;;3.50;;
53263;SDS011;39153;52.680;6.172;2023-12-29T09:29:46;20.20;;;3.63;;
53263;SDS011;39153;52.680;6.172;2023-12-29T09:32:12;13.05;;;3.70;;
53263;SDS011;39153;52.680;6.172;2023-12-29T09:34:38;14.70;;;2.85;;
53263;SDS011;39153;52.680;6.172;2023-12-29T09:37:04;12.50;;;2.80;;
53263;SDS011;39153;52.680;6.172;2023-12-29T09:39:29;15.60;;;2.95;;
53263;SDS011;39153;52.680;6.172;2023-12-29T09:41:57;13.73;;;3.08;;
53263;SDS011;39153;52.680;6.172;2023-12-29T09:44:25;12.93;;;3.00;;
53263;SDS011;39153;52.680;6.172;2023-12-29T09:46:55;12.48;;;2.72;;
53263;SDS011;39153;52.680;6.172;2023-12-29T09:49:26;14.98;;;2.90;;
53263;SDS011;39153;52.680;6.172;2023-12-29T09:51:56;13.43;;;3.50;;
53263;SDS011;39153;52.680;6.172;2023-12-29T09:54:23;13.48;;;2.40;;
53263;SDS011;39153;52.680;6.172;2023-12-29T09:56:50;10.82;;;1.98;;
53263;SDS011;39153;52.680;6.172;2023-12-29T09:59:16;15.93;;;2.10;;
53263;SDS011;39153;52.680;6.172;2023-12-29T10:01:42;9.82;;;1.80;;
53263;SDS011;39153;52.680;6.172;2023-12-29T10:04:11;19.42;;;2.58;;
53263;SDS011;39153;52.680;6.172;2023-12-29T10:06:38;17.92;;;2.88;;
53263;SDS011;39153;52.680;6.172;2023-12-29T10:09:07;20.20;;;2.78;;
53263;SDS011;39153;52.680;6.172;2023-12-29T10:11:35;15.65;;;1.85;;
53263;SDS011;39153;52.680;6.172;2023-12-29T10:14:05;9.73;;;1.42;;
53263;SDS011;39153;52.680;6.172;2023-12-29T10:16:43;6.30;;;1.27;;
53263;SDS011;39153;52.680;6.172;2023-12-29T10:24:35;6.22;;;1.20;;
53263;SDS011;39153;52.680;6.172;2023-12-29T10:27:01;11.48;;;1.65;;
53263;SDS011;39153;52.680;6.172;2023-12-29T10:29:27;7.97;;;1.30;;
53263;SDS011;39153;52.680;6.172;2023-12-29T10:31:53;8.10;;;1.77;;
53263;SDS011;39153;52.680;6.172;2023-12-29T10:36:46;11.00;;;2.00;;
53263;SDS011;39153;52.680;6.172;2023-12-29T10:39:15;11.80;;;1.88;;
53263;SDS011;39153;52.680;6.172;2023-12-29T10:41:41;12.40;;;1.90;;
53263;SDS011;39153;52.680;6.172;2023-12-29T10:44:07;12.93;;;2.42;;
53263;SDS011;39153;52.680;6.172;2023-12-29T10:46:33;14.65;;;3.05;;
53263;SDS011;39153;52.680;6.172;2023-12-29T10:49:08;12.05;;;2.22;;
53263;SDS011;39153;52.680;6.172;2023-12-29T10:51:35;14.13;;;2.05;;
53263;SDS011;39153;52.680;6.172;2023-12-29T10:54:02;12.75;;;2.17;;
53263;SDS011;39153;52.680;6.172;2023-12-29T10:56:28;14.38;;;2.40;;
53263;SDS011;39153;52.680;6.172;2023-12-29T10:59:04;13.90;;;3.15;;
53263;SDS011;39153;52.680;6.172;2023-12-29T11:01:31;18.27;;;2.55;;
53263;SDS011;39153;52.680;6.172;2023-12-29T11:04:06;19.05;;;3.15;;
53263;SDS011;39153;52.680;6.172;2023-12-29T11:06:40;17.20;;;2.53;;
53263;SDS011;39153;52.680;6.172;2023-12-29T11:09:09;18.40;;;3.05;;
53263;SDS011;39153;52.680;6.172;2023-12-29T11:11:36;20.55;;;2.83;;
53263;SDS011;39153;52.680;6.172;2023-12-29T11:14:02;16.30;;;2.75;;
53263;SDS011;39153;52.680;6.172;2023-12-29T11:16:29;16.40;;;2.78;;
53263;SDS011;39153;52.680;6.172;2023-12-29T11:18:57;21.55;;;2.88;;
53263;SDS011;39153;52.680;6.172;2023-12-29T11:21:24;18.10;;;3.10;;
53263;SDS011;39153;52.680;6.172;2023-12-29T11:23:52;15.50;;;3.17;;
53263;SDS011;39153;52.680;6.172;2023-12-29T11:26:18;17.63;;;2.95;;
53263;SDS011;39153;52.680;6.172;2023-12-29T11:28:47;22.42;;;3.33;;
53263;SDS011;39153;52.680;6.172;2023-12-29T11:31:16;22.10;;;3.20;;
53263;SDS011;39153;52.680;6.172;2023-12-29T11:33:43;21.88;;;3.25;;
53263;SDS011;39153;52.680;6.172;2023-12-29T11:36:16;17.30;;;2.85;;
53263;SDS011;39153;52.680;6.172;2023-12-29T11:44:06;16.20;;;3.28;;
53263;SDS011;39153;52.680;6.172;2023-12-29T11:46:32;27.58;;;3.65;;
53263;SDS011;39153;52.680;6.172;2023-12-29T11:48:58;25.73;;;4.03;;
53263;SDS011;39153;52.680;6.172;2023-12-29T11:51:32;21.70;;;3.35;;
53263;SDS011;39153;52.680;6.172;2023-12-29T11:53:58;24.73;;;2.95;;
53263;SDS011;39153;52.680;6.172;2023-12-29T11:56:30;19.35;;;3.10;;
53263;SDS011;39153;52.680;6.172;2023-12-29T11:59:21;19.65;;;2.58;;
53263;SDS011;39153;52.680;6.172;2023-12-29T12:01:55;13.05;;;2.25;;
53263;SDS011;39153;52.680;6.172;2023-12-29T12:04:41;19.88;;;2.88;;
53263;SDS011;39153;52.680;6.172;2023-12-29T12:07:15;21.05;;;2.92;;
53263;SDS011;39153;52.680;6.172;2023-12-29T12:09:42;18.25;;;2.80;;
53263;SDS011;39153;52.680;6.172;2023-12-29T12:12:08;19.30;;;3.58;;
53263;SDS011;39153;52.680;6.172;2023-12-29T12:14:48;10.93;;;2.17;;
53263;SDS011;39153;52.680;6.172;2023-12-29T12:17:32;19.05;;;2.92;;
53263;SDS011;39153;52.680;6.172;2023-12-29T12:20:08;16.52;;;2.60;;
53263;SDS011;39153;52.680;6.172;2023-12-29T12:22:35;15.65;;;2.78;;
53263;SDS011;39153;52.680;6.172;2023-12-29T12:25:01;16.83;;;2.78;;
53263;SDS011;39153;52.680;6.172;2023-12-29T12:27:29;18.13;;;2.40;;
53263;SDS011;39153;52.680;6.172;2023-12-29T12:29:57;16.00;;;2.72;;
53263;SDS011;39153;52.680;6.172;2023-12-29T12:32:28;13.93;;;2.92;;
53263;SDS011;39153;52.680;6.172;2023-12-29T12:34:55;15.70;;;2.55;;
53263;SDS011;39153;52.680;6.172;2023-12-29T12:37:24;15.25;;;2.50;;
53263;SDS011;39153;52.680;6.172;2023-12-29T12:39:51;15.68;;;2.22;;
53263;SDS011;39153;52.680;6.172;2023-12-29T12:42:18;16.60;;;2.45;;
53263;SDS011;39153;52.680;6.172;2023-12-29T12:45:01;14.73;;;2.38;;
53263;SDS011;39153;52.680;6.172;2023-12-29T12:48:09;17.95;;;2.63;;
53263;SDS011;39153;52.680;6.172;2023-12-29T12:50:37;17.92;;;2.67;;
53263;SDS011;39153;52.680;6.172;2023-12-29T12:53:08;11.55;;;2.63;;
53263;SDS011;39153;52.680;6.172;2023-12-29T12:55:35;18.20;;;2.65;;
53263;SDS011;39153;52.680;6.172;2023-12-29T12:58:01;15.10;;;2.47;;
53263;SDS011;39153;52.680;6.172;2023-12-29T13:00:27;14.07;;;2.55;;
53263;SDS011;39153;52.680;6.172;2023-12-29T13:02:54;14.65;;;2.22;;
53263;SDS011;39153;52.680;6.172;2023-12-29T13:05:20;17.63;;;2.25;;
53263;SDS011;39153;52.680;6.172;2023-12-29T13:07:47;16.65;;;3.10;;
53263;SDS011;39153;52.680;6.172;2023-12-29T13:10:13;16.98;;;2.70;;
53263;SDS011;39153;52.680;6.172;2023-12-29T13:12:39;19.38;;;2.58;;
53263;SDS011;39153;52.680;6.172;2023-12-29T13:15:07;14.48;;;2.40;;
53263;SDS011;39153;52.680;6.172;2023-12-29T13:17:33;14.68;;;2.20;;
53263;SDS011;39153;52.680;6.172;2023-12-29T13:20:00;12.93;;;2.40;;
53263;SDS011;39153;52.680;6.172;2023-12-29T13:22:27;11.68;;;2.30;;
53263;SDS011;39153;52.680;6.172;2023-12-29T13:24:53;17.50;;;2.60;;
53263;SDS011;39153;52.680;6.172;2023-12-29T13:27:20;16.80;;;2.40;;
53263;SDS011;39153;52.680;6.172;2023-12-29T13:29:46;11.55;;;2.25;;
53263;SDS011;39153;52.680;6.172;2023-12-29T13:32:22;13.60;;;2.08;;
53263;SDS011;39153;52.680;6.172;2023-12-29T13:37:25;13.93;;;2.30;;
53263;SDS011;39153;52.680;6.172;2023-12-29T13:42:48;11.57;;;1.88;;
53263;SDS011;39153;52.680;6.172;2023-12-29T13:45:18;13.43;;;2.50;;
53263;SDS011;39153;52.680;6.172;2023-12-29T13:47:45;10.50;;;1.85;;
53263;SDS011;39153;52.680;6.172;2023-12-29T13:50:11;16.52;;;2.20;;
53263;SDS011;39153;52.680;6.172;2023-12-29T13:52:37;16.63;;;2.53;;
53263;SDS011;39153;52.680;6.172;2023-12-29T13:55:04;15.55;;;2.35;;
53263;SDS011;39153;52.680;6.172;2023-12-29T13:57:31;14.02;;;2.58;;
53263;SDS011;39153;52.680;6.172;2023-12-29T14:00:12;16.95;;;2.53;;
53263;SDS011;39153;52.680;6.172;2023-12-29T14:02:48;16.05;;;2.58;;
53263;SDS011;39153;52.680;6.172;2023-12-29T14:07:52;15.75;;;2.50;;
53263;SDS011;39153;52.680;6.172;2023-12-29T14:10:28;16.73;;;2.25;;
53263;SDS011;39153;52.680;6.172;2023-12-29T14:13:13;17.25;;;2.78;;
53263;SDS011;39153;52.680;6.172;2023-12-29T14:15:41;18.95;;;2.28;;
53263;SDS011;39153;52.680;6.172;2023-12-29T14:18:10;15.65;;;2.53;;
53263;SDS011;39153;52.680;6.172;2023-12-29T14:20:48;17.63;;;2.60;;
53263;SDS011;39153;52.680;6.172;2023-12-29T14:23:13;18.02;;;2.53;;
53263;SDS011;39153;52.680;6.172;2023-12-29T14:25:43;17.27;;;3.22;;
53263;SDS011;39153;52.680;6.172;2023-12-29T14:28:15;23.75;;;3.10;;
53263;SDS011;39153;52.680;6.172;2023-12-29T14:30:42;21.67;;;2.47;;
53263;SDS011;39153;52.680;6.172;2023-12-29T14:33:08;21.60;;;6.78;;
53263;SDS011;39153;52.680;6.172;2023-12-29T14:35:34;22.10;;;4.00;;
53263;SDS011;39153;52.680;6.172;2023-12-29T14:38:00;20.77;;;6.18;;
53263;SDS011;39153;52.680;6.172;2023-12-29T14:40:26;18.38;;;3.42;;
53263;SDS011;39153;52.680;6.172;2023-12-29T14:42:52;32.35;;;13.10;;
53263;SDS011;39153;52.680;6.172;2023-12-29T14:45:18;26.80;;;11.57;;
53263;SDS011;39153;52.680;6.172;2023-12-29T14:47:44;14.13;;;3.05;;
53263;SDS011;39153;52.680;6.172;2023-12-29T14:50:14;14.65;;;2.63;;
53263;SDS011;39153;52.680;6.172;2023-12-29T14:52:40;16.50;;;2.67;;
53263;SDS011;39153;52.680;6.172;2023-12-29T14:55:06;14.88;;;2.75;;
53263;SDS011;39153;52.680;6.172;2023-12-29T14:57:31;18.27;;;2.78;;
53263;SDS011;39153;52.680;6.172;2023-12-29T14:59:57;17.77;;;2.67;;